sensor_id;sensor_type;location;lat;lon;timestamp;noise_LAeq;noise_LA_min;noise_LA_max;noise_LA01;noise_LA95
18377;Laerm;9315;52.624;13.544;2023-04-08T00:01:04;62.74;31.86;78.71;;
18377;Laerm;9315;52.624;13.544;2023-04-08T00:03:31;56.21;29.82;72.91;;
18377;Laerm;9315;52.624;13.544;2023-04-08T00:05:59;64.09;30.69;82.35;;
18377;Laerm;9315;52.624;13.544;2023-04-08T00:08:28;36.91;30.06;51.97;;
18377;Laerm;9315;52.624;13.544;2023-04-08T00:10:56;44.95;32.13;64.72;;
18377;Laerm;9315;52.624;13.544;2023-04-08T00:13:23;61.02;31.44;75.68;;
18377;Laerm;9315;52.624;13.544;2023-04-08T00:15:50;33.31;30.24;47.69;;
18377;Laerm;9315;52.624;13.544;2023-04-08T00:18:17;33.69;30.54;46.41;;
18377;Laerm;9315;52.624;13.544;2023-04-08T00:20:45;56.87;30.29;76.89;;
18377;Laerm;9315;52.624;13.544;2023-04-08T00:23:12;62.86;31.21;83.61;;
18377;Laerm;9315;52.624;13.544;2023-04-08T00:25:39;65.25;28.98;85.80;;
18377;Laerm;9315;52.624;13.544;2023-04-08T00:28:06;55.40;29.34;73.64;;
18377;Laerm;9315;52.624;13.544;2023-04-08T00:30:33;34.27;30.59;44.09;;
18377;Laerm;9315;52.624;13.544;2023-04-08T00:33:01;68.96;29.71;87.78;;
18377;Laerm;9315;52.624;13.544;2023-04-08T00:35:28;45.06;30.50;66.93;;
18377;Laerm;9315;52.624;13.544;2023-04-08T00:37:55;33.50;30.13;45.87;;
18377;Laerm;9315;52.624;13.544;2023-04-08T00:40:24;56.96;30.50;75.82;;
18377;Laerm;9315;52.624;13.544;2023-04-08T00:42:52;56.85;30.02;77.00;;
18377;Laerm;9315;52.624;13.544;2023-04-08T00:45:19;64.47;29.81;82.06;;
18377;Laerm;9315;52.624;13.544;2023-04-08T00:47:46;60.38;30.90;79.48;;
18377;Laerm;9315;52.624;13.544;2023-04-08T00:50:18;59.26;29.98;75.71;;
18377;Laerm;9315;52.624;13.544;2023-04-08T00:52:46;59.50;29.62;76.58;;
18377;Laerm;9315;52.624;13.544;2023-04-08T00:55:13;33.90;29.79;44.97;;
18377;Laerm;9315;52.624;13.544;2023-04-08T00:57:41;32.47;29.56;40.56;;
18377;Laerm;9315;52.624;13.544;2023-04-08T01:00:09;65.14;30.08;81.60;;
18377;Laerm;9315;52.624;13.544;2023-04-08T01:03:05;62.82;30.80;78.90;;
18377;Laerm;9315;52.624;13.544;2023-04-08T01:08:49;33.13;30.05;47.01;;
18377;Laerm;9315;52.624;13.544;2023-04-08T01:11:18;34.71;30.45;52.06;;
18377;Laerm;9315;52.624;13.544;2023-04-08T01:13:47;59.08;31.12;75.94;;
18377;Laerm;9315;52.624;13.544;2023-04-08T01:16:16;63.18;30.98;77.52;;
18377;Laerm;9315;52.624;13.544;2023-04-08T01:18:44;61.23;31.27;81.84;;
18377;Laerm;9315;52.624;13.544;2023-04-08T01:21:14;49.39;31.91;67.92;;
18377;Laerm;9315;52.624;13.544;2023-04-08T01:24:22;65.24;31.56;80.22;;
18377;Laerm;9315;52.624;13.544;2023-04-08T01:26:54;57.56;31.85;77.12;;
18377;Laerm;9315;52.624;13.544;2023-04-08T01:29:24;61.88;31.84;80.01;;
18377;Laerm;9315;52.624;13.544;2023-04-08T01:31:52;58.09;30.93;74.51;;
18377;Laerm;9315;52.624;13.544;2023-04-08T01:34:22;37.73;30.48;54.85;;
18377;Laerm;9315;52.624;13.544;2023-04-08T01:36:50;62.61;30.82;82.14;;
18377;Laerm;9315;52.624;13.544;2023-04-08T01:39:20;46.65;30.53;65.90;;
18377;Laerm;9315;52.624;13.544;2023-04-08T01:41:48;55.49;30.49;71.30;;
18377;Laerm;9315;52.624;13.544;2023-04-08T01:44:18;55.98;31.44;74.88;;
18377;Laerm;9315;52.624;13.544;2023-04-08T01:46:47;60.11;30.48;76.54;;
18377;Laerm;9315;52.624;13.544;2023-04-08T01:49:15;58.20;30.85;78.17;;
18377;Laerm;9315;52.624;13.544;2023-04-08T01:51:44;58.92;30.15;78.32;;
18377;Laerm;9315;52.624;13.544;2023-04-08T01:54:12;58.76;31.62;76.35;;
18377;Laerm;9315;52.624;13.544;2023-04-08T01:56:41;57.34;31.17;73.85;;
18377;Laerm;9315;52.624;13.544;2023-04-08T01:59:14;60.11;31.20;73.59;;
18377;Laerm;9315;52.624;13.544;2023-04-08T02:01:44;65.23;31.10;80.62;;
18377;Laerm;9315;52.624;13.544;2023-04-08T02:04:13;33.68;30.57;45.59;;
18377;Laerm;9315;52.624;13.544;2023-04-08T02:06:41;35.03;30.98;47.30;;
18377;Laerm;9315;52.624;13.544;2023-04-08T02:09:08;59.56;31.93;76.89;;
18377;Laerm;9315;52.624;13.544;2023-04-08T02:11:37;61.04;32.48;76.92;;
18377;Laerm;9315;52.624;13.544;2023-04-08T02:14:04;63.56;32.15;76.70;;
18377;Laerm;9315;52.624;13.544;2023-04-08T02:17:04;60.95;33.54;75.69;;
18377;Laerm;9315;52.624;13.544;2023-04-08T02:20:11;66.07;34.05;83.23;;
18377;Laerm;9315;52.624;13.544;2023-04-08T02:22:49;56.65;31.90;74.82;;
18377;Laerm;9315;52.624;13.544;2023-04-08T02:25:24;64.45;32.53;81.63;;
18377;Laerm;9315;52.624;13.544;2023-04-08T02:27:52;56.83;30.97;73.14;;
18377;Laerm;9315;52.624;13.544;2023-04-08T02:30:21;64.35;32.27;77.12;;
18377;Laerm;9315;52.624;13.544;2023-04-08T02:32:51;58.82;31.60;75.36;;
18377;Laerm;9315;52.624;13.544;2023-04-08T02:35:20;62.59;35.51;76.56;;
18377;Laerm;9315;52.624;13.544;2023-04-08T02:37:47;65.04;36.66;79.28;;
18377;Laerm;9315;52.624;13.544;2023-04-08T02:40:34;60.52;32.26;74.74;;
18377;Laerm;9315;52.624;13.544;2023-04-08T02:43:01;57.23;33.10;73.79;;
18377;Laerm;9315;52.624;13.544;2023-04-08T02:45:42;63.43;33.58;75.17;;
18377;Laerm;9315;52.624;13.544;2023-04-08T02:48:10;62.80;31.85;77.30;;
18377;Laerm;9315;52.624;13.544;2023-04-08T02:50:38;61.24;35.13;76.66;;
18377;Laerm;9315;52.624;13.544;2023-04-08T02:53:08;62.05;32.63;74.02;;
18377;Laerm;9315;52.624;13.544;2023-04-08T02:55:35;64.95;33.04;79.47;;
18377;Laerm;9315;52.624;13.544;2023-04-08T02:58:02;60.20;32.85;74.30;;
18377;Laerm;9315;52.624;13.544;2023-04-08T03:00:30;61.08;33.58;78.41;;
18377;Laerm;9315;52.624;13.544;2023-04-08T03:02:57;59.42;33.33;76.23;;
18377;Laerm;9315;52.624;13.544;2023-04-08T03:05:25;55.03;32.60;76.47;;
18377;Laerm;9315;52.624;13.544;2023-04-08T03:07:52;61.71;34.35;77.35;;
18377;Laerm;9315;52.624;13.544;2023-04-08T03:10:20;60.91;32.22;74.92;;
18377;Laerm;9315;52.624;13.544;2023-04-08T03:12:47;64.55;34.42;81.00;;
18377;Laerm;9315;52.624;13.544;2023-04-08T03:15:14;65.58;36.73;79.62;;
18377;Laerm;9315;52.624;13.544;2023-04-08T03:17:42;62.63;37.49;76.58;;
18377;Laerm;9315;52.624;13.544;2023-04-08T03:20:09;61.45;37.04;75.02;;
18377;Laerm;9315;52.624;13.544;2023-04-08T03:22:37;66.24;36.96;78.24;;
18377;Laerm;9315;52.624;13.544;2023-04-08T03:25:04;64.19;35.48;79.32;;
18377;Laerm;9315;52.624;13.544;2023-04-08T03:27:32;62.79;34.44;77.93;;
18377;Laerm;9315;52.624;13.544;2023-04-08T03:29:59;64.05;37.58;76.86;;
18377;Laerm;9315;52.624;13.544;2023-04-08T03:32:26;62.00;37.39;77.54;;
18377;Laerm;9315;52.624;13.544;2023-04-08T03:34:54;62.20;36.42;76.50;;
18377;Laerm;9315;52.624;13.544;2023-04-08T03:37:21;57.53;34.99;77.08;;
18377;Laerm;9315;52.624;13.544;2023-04-08T03:39:52;66.32;35.10;84.45;;
18377;Laerm;9315;52.624;13.544;2023-04-08T03:42:19;64.59;34.93;77.15;;
18377;Laerm;9315;52.624;13.544;2023-04-08T03:44:46;59.30;34.79;76.27;;
18377;Laerm;9315;52.624;13.544;2023-04-08T03:47:13;63.95;36.04;76.26;;
18377;Laerm;9315;52.624;13.544;2023-04-08T03:49:40;64.19;36.41;80.29;;
18377;Laerm;9315;52.624;13.544;2023-04-08T03:52:07;60.68;36.59;76.38;;
18377;Laerm;9315;52.624;13.544;2023-04-08T03:54:34;64.53;36.86;78.81;;
18377;Laerm;9315;52.624;13.544;2023-04-08T03:57:01;65.49;36.89;77.56;;
18377;Laerm;9315;52.624;13.544;2023-04-08T03:59:28;62.19;36.18;80.02;;
18377;Laerm;9315;52.624;13.544;2023-04-08T04:01:56;65.35;38.42;85.68;;
18377;Laerm;9315;52.624;13.544;2023-04-08T04:04:23;66.80;38.63;81.29;;
18377;Laerm;9315;52.624;13.544;2023-04-08T04:06:51;61.56;34.34;78.96;;
18377;Laerm;9315;52.624;13.544;2023-04-08T04:09:18;66.37;38.52;78.03;;
18377;Laerm;9315;52.624;13.544;2023-04-08T04:11:45;58.84;37.50;75.51;;
18377;Laerm;9315;52.624;13.544;2023-04-08T04:14:12;66.85;39.21;80.47;;
18377;Laerm;9315;52.624;13.544;2023-04-08T04:16:39;63.99;37.26;77.65;;
18377;Laerm;9315;52.624;13.544;2023-04-08T04:19:07;65.23;35.46;79.92;;
18377;Laerm;9315;52.624;13.544;2023-04-08T04:21:34;56.69;35.39;73.10;;
18377;Laerm;9315;52.624;13.544;2023-04-08T04:24:01;64.60;36.01;76.83;;
18377;Laerm;9315;52.624;13.544;2023-04-08T04:26:28;63.47;35.57;78.24;;
18377;Laerm;9315;52.624;13.544;2023-04-08T04:28:55;67.86;40.57;84.22;;
18377;Laerm;9315;52.624;13.544;2023-04-08T04:31:24;66.49;39.26;79.53;;
18377;Laerm;9315;52.624;13.544;2023-04-08T04:33:53;64.05;39.76;76.36;;
18377;Laerm;9315;52.624;13.544;2023-04-08T04:36:23;65.66;38.64;77.72;;
18377;Laerm;9315;52.624;13.544;2023-04-08T04:38:50;64.93;37.07;80.52;;
18377;Laerm;9315;52.624;13.544;2023-04-08T04:41:18;64.88;41.50;75.93;;
18377;Laerm;9315;52.624;13.544;2023-04-08T04:43:45;63.47;37.12;79.03;;
18377;Laerm;9315;52.624;13.544;2023-04-08T04:46:12;61.57;37.40;78.25;;
18377;Laerm;9315;52.624;13.544;2023-04-08T04:48:39;64.17;38.19;80.02;;
18377;Laerm;9315;52.624;13.544;2023-04-08T04:51:07;65.23;39.53;77.29;;
18377;Laerm;9315;52.624;13.544;2023-04-08T04:53:34;65.42;39.05;77.30;;
18377;Laerm;9315;52.624;13.544;2023-04-08T04:56:01;69.23;40.84;82.94;;
18377;Laerm;9315;52.624;13.544;2023-04-08T04:58:29;55.86;37.17;69.85;;
18377;Laerm;9315;52.624;13.544;2023-04-08T05:00:56;65.24;38.59;80.24;;
18377;Laerm;9315;52.624;13.544;2023-04-08T05:03:24;64.43;37.29;79.47;;
18377;Laerm;9315;52.624;13.544;2023-04-08T05:05:53;63.98;36.04;76.90;;
18377;Laerm;9315;52.624;13.544;2023-04-08T05:08:21;65.95;37.87;77.62;;
18377;Laerm;9315;52.624;13.544;2023-04-08T05:10:48;66.00;40.67;76.96;;
18377;Laerm;9315;52.624;13.544;2023-04-08T05:13:18;68.70;40.18;85.56;;
18377;Laerm;9315;52.624;13.544;2023-04-08T05:15:46;69.64;38.80;84.80;;
18377;Laerm;9315;52.624;13.544;2023-04-08T05:18:14;68.49;39.28;81.83;;
18377;Laerm;9315;52.624;13.544;2023-04-08T05:20:41;63.72;36.28;76.50;;
18377;Laerm;9315;52.624;13.544;2023-04-08T05:23:08;64.67;37.96;78.12;;
18377;Laerm;9315;52.624;13.544;2023-04-08T05:25:35;64.74;37.60;81.13;;
18377;Laerm;9315;52.624;13.544;2023-04-08T05:28:03;52.76;36.69;70.23;;
18377;Laerm;9315;52.624;13.544;2023-04-08T05:30:30;67.55;39.87;80.38;;
18377;Laerm;9315;52.624;13.544;2023-04-08T05:32:57;68.25;40.29;81.95;;
18377;Laerm;9315;52.624;13.544;2023-04-08T05:35:27;66.63;43.63;79.17;;
18377;Laerm;9315;52.624;13.544;2023-04-08T05:37:55;65.98;39.46;87.97;;
18377;Laerm;9315;52.624;13.544;2023-04-08T05:40:22;66.43;38.93;78.75;;
18377;Laerm;9315;52.624;13.544;2023-04-08T05:42:51;67.59;46.68;78.98;;
18377;Laerm;9315;52.624;13.544;2023-04-08T05:45:18;64.37;41.95;77.40;;
18377;Laerm;9315;52.624;13.544;2023-04-08T05:47:45;67.39;41.84;79.05;;
18377;Laerm;9315;52.624;13.544;2023-04-08T05:50:15;67.39;43.54;80.86;;
18377;Laerm;9315;52.624;13.544;2023-04-08T05:52:43;67.76;39.73;83.11;;
18377;Laerm;9315;52.624;13.544;2023-04-08T05:55:12;67.83;45.38;79.32;;
18377;Laerm;9315;52.624;13.544;2023-04-08T05:57:40;67.77;37.73;80.16;;
18377;Laerm;9315;52.624;13.544;2023-04-08T06:00:09;64.94;39.05;78.28;;
18377;Laerm;9315;52.624;13.544;2023-04-08T06:02:37;67.19;41.42;78.35;;
18377;Laerm;9315;52.624;13.544;2023-04-08T06:05:09;67.57;40.37;78.32;;
18377;Laerm;9315;52.624;13.544;2023-04-08T06:07:39;67.93;41.12;79.25;;
18377;Laerm;9315;52.624;13.544;2023-04-08T06:10:07;66.51;40.57;81.18;;
18377;Laerm;9315;52.624;13.544;2023-04-08T06:12:36;68.32;41.91;80.31;;
18377;Laerm;9315;52.624;13.544;2023-04-08T06:15:08;68.37;41.14;80.90;;
18377;Laerm;9315;52.624;13.544;2023-04-08T06:17:37;68.49;42.00;79.05;;
18377;Laerm;9315;52.624;13.544;2023-04-08T06:20:05;66.29;40.72;76.73;;
18377;Laerm;9315;52.624;13.544;2023-04-08T06:22:37;69.68;39.22;79.47;;
18377;Laerm;9315;52.624;13.544;2023-04-08T06:25:05;68.65;39.03;83.19;;
18377;Laerm;9315;52.624;13.544;2023-04-08T06:27:32;70.11;38.60;95.49;;
18377;Laerm;9315;52.624;13.544;2023-04-08T06:29:59;66.89;40.40;79.51;;
18377;Laerm;9315;52.624;13.544;2023-04-08T06:32:27;67.30;39.95;78.36;;
18377;Laerm;9315;52.624;13.544;2023-04-08T06:34:54;67.44;38.71;81.01;;
18377;Laerm;9315;52.624;13.544;2023-04-08T06:37:21;69.25;44.54;81.71;;
18377;Laerm;9315;52.624;13.544;2023-04-08T06:39:48;67.47;39.98;80.35;;
18377;Laerm;9315;52.624;13.544;2023-04-08T06:42:15;66.00;38.20;79.80;;
18377;Laerm;9315;52.624;13.544;2023-04-08T06:44:42;68.59;40.55;78.39;;
18377;Laerm;9315;52.624;13.544;2023-04-08T06:47:09;66.49;42.45;79.00;;
18377;Laerm;9315;52.624;13.544;2023-04-08T06:49:36;69.70;42.10;79.73;;
18377;Laerm;9315;52.624;13.544;2023-04-08T06:52:04;68.23;43.57;76.84;;
18377;Laerm;9315;52.624;13.544;2023-04-08T06:54:32;69.54;41.97;81.24;;
18377;Laerm;9315;52.624;13.544;2023-04-08T06:56:59;67.72;41.64;78.76;;
18377;Laerm;9315;52.624;13.544;2023-04-08T06:59:27;66.96;42.67;77.39;;
18377;Laerm;9315;52.624;13.544;2023-04-08T07:01:54;68.53;41.15;78.32;;
18377;Laerm;9315;52.624;13.544;2023-04-08T07:04:21;69.45;42.12;77.29;;
18377;Laerm;9315;52.624;13.544;2023-04-08T07:06:48;69.42;43.29;77.89;;
18377;Laerm;9315;52.624;13.544;2023-04-08T07:09:16;66.72;38.81;76.35;;
18377;Laerm;9315;52.624;13.544;2023-04-08T07:11:43;68.77;41.40;80.01;;
18377;Laerm;9315;52.624;13.544;2023-04-08T07:14:11;67.46;41.11;78.48;;
18377;Laerm;9315;52.624;13.544;2023-04-08T07:16:38;69.70;41.63;80.17;;
18377;Laerm;9315;52.624;13.544;2023-04-08T07:19:05;68.98;40.38;78.56;;
18377;Laerm;9315;52.624;13.544;2023-04-08T07:21:32;69.98;41.46;78.91;;
18377;Laerm;9315;52.624;13.544;2023-04-08T07:24:00;69.23;42.55;81.58;;
18377;Laerm;9315;52.624;13.544;2023-04-08T07:26:27;70.30;44.09;80.66;;
18377;Laerm;9315;52.624;13.544;2023-04-08T07:28:54;67.99;41.53;77.87;;
18377;Laerm;9315;52.624;13.544;2023-04-08T07:31:23;68.79;39.24;79.16;;
18377;Laerm;9315;52.624;13.544;2023-04-08T07:33:50;71.03;50.93;84.06;;
18377;Laerm;9315;52.624;13.544;2023-04-08T07:36:17;70.01;44.19;80.07;;
18377;Laerm;9315;52.624;13.544;2023-04-08T07:38:44;69.46;46.56;78.64;;
18377;Laerm;9315;52.624;13.544;2023-04-08T07:41:12;69.82;44.46;79.89;;
18377;Laerm;9315;52.624;13.544;2023-04-08T07:43:39;69.55;47.65;79.36;;
18377;Laerm;9315;52.624;13.544;2023-04-08T07:46:07;70.90;46.37;79.10;;
18377;Laerm;9315;52.624;13.544;2023-04-08T07:48:35;68.23;39.42;79.09;;
18377;Laerm;9315;52.624;13.544;2023-04-08T07:51:04;70.44;42.71;80.01;;
18377;Laerm;9315;52.624;13.544;2023-04-08T07:53:35;71.34;45.54;79.51;;
18377;Laerm;9315;52.624;13.544;2023-04-08T07:56:03;68.02;41.16;77.71;;
18377;Laerm;9315;52.624;13.544;2023-04-08T07:58:38;70.32;41.07;80.68;;
18377;Laerm;9315;52.624;13.544;2023-04-08T08:01:17;68.89;44.10;79.28;;
18377;Laerm;9315;52.624;13.544;2023-04-08T08:03:46;70.25;40.96;78.93;;
18377;Laerm;9315;52.624;13.544;2023-04-08T08:06:14;70.16;40.21;79.20;;
18377;Laerm;9315;52.624;13.544;2023-04-08T08:08:41;67.40;40.22;77.06;;
18377;Laerm;9315;52.624;13.544;2023-04-08T08:11:09;70.47;48.31;78.94;;
18377;Laerm;9315;52.624;13.544;2023-04-08T08:13:36;72.43;43.29;84.50;;
18377;Laerm;9315;52.624;13.544;2023-04-08T08:16:03;66.95;45.39;83.96;;
18377;Laerm;9315;52.624;13.544;2023-04-08T08:18:34;70.37;44.93;81.39;;
18377;Laerm;9315;52.624;13.544;2023-04-08T08:21:02;69.52;46.49;78.42;;
18377;Laerm;9315;52.624;13.544;2023-04-08T08:23:32;70.19;43.66;77.37;;
18377;Laerm;9315;52.624;13.544;2023-04-08T08:26:02;69.60;45.74;82.37;;
18377;Laerm;9315;52.624;13.544;2023-04-08T08:28:30;70.04;43.48;78.78;;
18377;Laerm;9315;52.624;13.544;2023-04-08T08:30:58;69.81;47.53;78.12;;
18377;Laerm;9315;52.624;13.544;2023-04-08T08:33:25;68.93;41.58;78.28;;
18377;Laerm;9315;52.624;13.544;2023-04-08T08:35:54;71.04;48.76;78.91;;
18377;Laerm;9315;52.624;13.544;2023-04-08T08:38:24;68.83;46.63;79.05;;
18377;Laerm;9315;52.624;13.544;2023-04-08T08:40:59;70.91;40.86;78.78;;
18377;Laerm;9315;52.624;13.544;2023-04-08T08:43:28;69.53;48.79;78.63;;
18377;Laerm;9315;52.624;13.544;2023-04-08T08:45:55;69.80;47.10;77.03;;
18377;Laerm;9315;52.624;13.544;2023-04-08T08:48:22;69.60;44.91;78.17;;
18377;Laerm;9315;52.624;13.544;2023-04-08T08:50:50;70.47;48.13;80.48;;
18377;Laerm;9315;52.624;13.544;2023-04-08T08:53:17;69.60;43.52;79.20;;
18377;Laerm;9315;52.624;13.544;2023-04-08T08:55:46;70.57;45.30;82.10;;
18377;Laerm;9315;52.624;13.544;2023-04-08T08:58:17;69.47;44.31;80.36;;
18377;Laerm;9315;52.624;13.544;2023-04-08T09:00:44;69.78;44.52;79.79;;
18377;Laerm;9315;52.624;13.544;2023-04-08T09:03:24;69.18;46.03;78.72;;
18377;Laerm;9315;52.624;13.544;2023-04-08T09:06:01;70.91;51.31;78.46;;
18377;Laerm;9315;52.624;13.544;2023-04-08T09:08:36;70.55;43.85;80.07;;
18377;Laerm;9315;52.624;13.544;2023-04-08T09:11:19;69.70;46.43;79.39;;
18377;Laerm;9315;52.624;13.544;2023-04-08T09:13:50;71.30;48.35;80.97;;
18377;Laerm;9315;52.624;13.544;2023-04-08T09:16:18;69.79;44.27;78.93;;
18377;Laerm;9315;52.624;13.544;2023-04-08T09:18:47;70.48;48.03;78.84;;
18377;Laerm;9315;52.624;13.544;2023-04-08T09:21:16;69.85;44.92;78.54;;
18377;Laerm;9315;52.624;13.544;2023-04-08T09:23:48;71.10;47.03;78.47;;
18377;Laerm;9315;52.624;13.544;2023-04-08T09:26:23;69.86;46.43;78.15;;
18377;Laerm;9315;52.624;13.544;2023-04-08T09:29:11;69.72;44.69;79.58;;
18377;Laerm;9315;52.624;13.544;2023-04-08T09:31:59;71.26;43.77;80.59;;
18377;Laerm;9315;52.624;13.544;2023-04-08T09:34:29;69.24;42.86;78.21;;
18377;Laerm;9315;52.624;13.544;2023-04-08T09:36:58;70.43;45.52;77.77;;
18377;Laerm;9315;52.624;13.544;2023-04-08T09:39:25;69.63;40.70;78.77;;
18377;Laerm;9315;52.624;13.544;2023-04-08T09:41:53;70.17;43.72;79.75;;
18377;Laerm;9315;52.624;13.544;2023-04-08T09:44:25;69.78;42.92;82.43;;
18377;Laerm;9315;52.624;13.544;2023-04-08T09:47:19;69.17;43.76;78.70;;
18377;Laerm;9315;52.624;13.544;2023-04-08T09:50:01;69.72;43.38;76.85;;
18377;Laerm;9315;52.624;13.544;2023-04-08T09:52:44;69.38;43.77;83.86;;
18377;Laerm;9315;52.624;13.544;2023-04-08T09:55:13;68.96;46.48;79.79;;
18377;Laerm;9315;52.624;13.544;2023-04-08T09:57:48;69.95;43.84;82.99;;
18377;Laerm;9315;52.624;13.544;2023-04-08T10:00:18;67.15;42.81;77.07;;
18377;Laerm;9315;52.624;13.544;2023-04-08T10:03:14;67.92;46.93;76.55;;
18377;Laerm;9315;52.624;13.544;2023-04-08T10:05:46;70.36;50.11;79.15;;
18377;Laerm;9315;52.624;13.544;2023-04-08T10:08:15;70.23;43.18;78.55;;
18377;Laerm;9315;52.624;13.544;2023-04-08T10:10:42;69.23;48.90;77.22;;
18377;Laerm;9315;52.624;13.544;2023-04-08T10:13:15;68.56;47.08;78.79;;
18377;Laerm;9315;52.624;13.544;2023-04-08T10:15:42;69.75;45.70;79.84;;
18377;Laerm;9315;52.624;13.544;2023-04-08T10:20:47;68.01;42.63;78.18;;
18377;Laerm;9315;52.624;13.544;2023-04-08T10:23:17;68.50;47.58;76.74;;
18377;Laerm;9315;52.624;13.544;2023-04-08T10:25:48;70.04;42.56;79.33;;
18377;Laerm;9315;52.624;13.544;2023-04-08T10:30:54;69.70;45.01;82.47;;
18377;Laerm;9315;52.624;13.544;2023-04-08T10:33:32;68.96;48.65;88.74;;
18377;Laerm;9315;52.624;13.544;2023-04-08T10:38:43;68.95;41.72;78.86;;
18377;Laerm;9315;52.624;13.544;2023-04-08T10:41:13;68.58;43.57;77.19;;
18377;Laerm;9315;52.624;13.544;2023-04-08T10:44:03;69.97;44.13;79.85;;
18377;Laerm;9315;52.624;13.544;2023-04-08T10:46:36;69.27;43.97;78.41;;
18377;Laerm;9315;52.624;13.544;2023-04-08T10:49:04;69.60;47.14;78.53;;
18377;Laerm;9315;52.624;13.544;2023-04-08T10:51:32;69.51;45.97;76.79;;
18377;Laerm;9315;52.624;13.544;2023-04-08T10:54:17;68.50;43.77;77.38;;
18377;Laerm;9315;52.624;13.544;2023-04-08T10:56:51;69.19;43.40;78.92;;
18377;Laerm;9315;52.624;13.544;2023-04-08T10:59:31;69.05;42.92;77.72;;
18377;Laerm;9315;52.624;13.544;2023-04-08T11:01:59;68.66;43.23;82.53;;
18377;Laerm;9315;52.624;13.544;2023-04-08T11:04:27;68.77;42.40;79.55;;
18377;Laerm;9315;52.624;13.544;2023-04-08T11:06:54;68.89;46.04;79.34;;
18377;Laerm;9315;52.624;13.544;2023-04-08T11:09:22;69.90;45.55;76.93;;
18377;Laerm;9315;52.624;13.544;2023-04-08T11:11:51;69.81;44.37;78.21;;
18377;Laerm;9315;52.624;13.544;2023-04-08T11:14:18;69.05;48.09;79.82;;
18377;Laerm;9315;52.624;13.544;2023-04-08T11:16:47;69.54;50.74;77.77;;
18377;Laerm;9315;52.624;13.544;2023-04-08T11:19:15;69.86;42.27;82.92;;
18377;Laerm;9315;52.624;13.544;2023-04-08T11:21:42;69.37;39.71;77.12;;
18377;Laerm;9315;52.624;13.544;2023-04-08T11:24:10;68.42;42.44;78.43;;
18377;Laerm;9315;52.624;13.544;2023-04-08T11:26:40;70.16;42.31;79.01;;
18377;Laerm;9315;52.624;13.544;2023-04-08T11:29:11;68.53;43.85;77.96;;
18377;Laerm;9315;52.624;13.544;2023-04-08T11:31:41;69.78;44.42;78.56;;
18377;Laerm;9315;52.624;13.544;2023-04-08T11:34:10;69.14;40.96;77.68;;
18377;Laerm;9315;52.624;13.544;2023-04-08T11:36:40;68.72;43.06;79.11;;
18377;Laerm;9315;52.624;13.544;2023-04-08T11:39:09;69.77;49.12;82.00;;
18377;Laerm;9315;52.624;13.544;2023-04-08T11:41:39;69.67;48.08;78.39;;
18377;Laerm;9315;52.624;13.544;2023-04-08T11:44:09;69.42;47.57;79.30;;
18377;Laerm;9315;52.624;13.544;2023-04-08T11:46:51;69.42;46.26;80.47;;
18377;Laerm;9315;52.624;13.544;2023-04-08T11:49:20;69.74;47.93;78.66;;
18377;Laerm;9315;52.624;13.544;2023-04-08T11:51:58;69.11;50.91;77.60;;
18377;Laerm;9315;52.624;13.544;2023-04-08T11:54:31;70.33;46.27;78.69;;
18377;Laerm;9315;52.624;13.544;2023-04-08T11:56:59;68.19;44.66;76.75;;
18377;Laerm;9315;52.624;13.544;2023-04-08T11:59:27;69.55;43.00;82.73;;
18377;Laerm;9315;52.624;13.544;2023-04-08T12:01:55;69.11;43.73;80.12;;
18377;Laerm;9315;52.624;13.544;2023-04-08T12:04:22;67.88;42.11;80.62;;
18377;Laerm;9315;52.624;13.544;2023-04-08T12:06:50;67.99;42.52;76.90;;
18377;Laerm;9315;52.624;13.544;2023-04-08T12:09:18;67.76;43.95;78.96;;
18377;Laerm;9315;52.624;13.544;2023-04-08T12:11:45;69.29;41.54;77.70;;
18377;Laerm;9315;52.624;13.544;2023-04-08T12:14:13;70.15;49.85;77.04;;
18377;Laerm;9315;52.624;13.544;2023-04-08T12:16:41;69.28;46.99;78.75;;
18377;Laerm;9315;52.624;13.544;2023-04-08T12:19:08;68.90;41.71;77.49;;
18377;Laerm;9315;52.624;13.544;2023-04-08T12:21:36;68.07;43.79;80.10;;
18377;Laerm;9315;52.624;13.544;2023-04-08T12:24:04;69.02;46.05;79.04;;
18377;Laerm;9315;52.624;13.544;2023-04-08T12:26:31;68.89;45.64;80.26;;
18377;Laerm;9315;52.624;13.544;2023-04-08T12:28:59;68.77;41.60;78.38;;
18377;Laerm;9315;52.624;13.544;2023-04-08T12:31:26;69.95;46.21;80.03;;
18377;Laerm;9315;52.624;13.544;2023-04-08T12:33:54;69.83;46.68;77.34;;
18377;Laerm;9315;52.624;13.544;2023-04-08T12:36:21;70.24;51.93;77.46;;
18377;Laerm;9315;52.624;13.544;2023-04-08T12:38:48;69.02;44.83;76.94;;
18377;Laerm;9315;52.624;13.544;2023-04-08T12:41:16;69.02;42.48;77.90;;
18377;Laerm;9315;52.624;13.544;2023-04-08T12:43:43;70.04;46.33;78.04;;
18377;Laerm;9315;52.624;13.544;2023-04-08T12:46:11;68.11;45.07;77.17;;
18377;Laerm;9315;52.624;13.544;2023-04-08T12:48:38;70.08;41.01;85.97;;
18377;Laerm;9315;52.624;13.544;2023-04-08T12:51:06;69.88;47.71;77.61;;
18377;Laerm;9315;52.624;13.544;2023-04-08T12:53:36;69.66;44.22;77.82;;
18377;Laerm;9315;52.624;13.544;2023-04-08T12:56:04;67.72;42.65;76.44;;
18377;Laerm;9315;52.624;13.544;2023-04-08T12:58:31;67.72;42.24;80.01;;
18377;Laerm;9315;52.624;13.544;2023-04-08T13:00:59;67.70;48.97;77.34;;
18377;Laerm;9315;52.624;13.544;2023-04-08T13:03:26;67.15;40.45;77.05;;
18377;Laerm;9315;52.624;13.544;2023-04-08T13:05:57;68.79;42.97;77.94;;
18377;Laerm;9315;52.624;13.544;2023-04-08T13:08:25;68.94;41.39;77.56;;
18377;Laerm;9315;52.624;13.544;2023-04-08T13:10:52;67.30;39.57;81.12;;
18377;Laerm;9315;52.624;13.544;2023-04-08T13:13:20;68.25;47.62;77.64;;
18377;Laerm;9315;52.624;13.544;2023-04-08T13:15:47;69.91;45.29;79.25;;
18377;Laerm;9315;52.624;13.544;2023-04-08T13:18:15;67.45;36.40;77.71;;
18377;Laerm;9315;52.624;13.544;2023-04-08T13:20:44;68.49;43.42;77.63;;
18377;Laerm;9315;52.624;13.544;2023-04-08T13:23:11;68.13;42.43;76.18;;
18377;Laerm;9315;52.624;13.544;2023-04-08T13:25:40;69.66;51.11;80.68;;
18377;Laerm;9315;52.624;13.544;2023-04-08T13:28:07;69.16;41.18;78.75;;
18377;Laerm;9315;52.624;13.544;2023-04-08T13:30:34;74.86;41.64;97.81;;
18377;Laerm;9315;52.624;13.544;2023-04-08T13:33:03;70.37;44.86;78.60;;
18377;Laerm;9315;52.624;13.544;2023-04-08T13:35:30;69.33;38.42;82.42;;
18377;Laerm;9315;52.624;13.544;2023-04-08T13:37:57;68.92;39.82;81.63;;
18377;Laerm;9315;52.624;13.544;2023-04-08T13:40:25;67.71;36.50;77.97;;
18377;Laerm;9315;52.624;13.544;2023-04-08T13:42:54;69.92;41.19;81.06;;
18377;Laerm;9315;52.624;13.544;2023-04-08T13:45:21;68.02;41.26;79.41;;
18377;Laerm;9315;52.624;13.544;2023-04-08T13:47:49;69.32;42.84;78.64;;
18377;Laerm;9315;52.624;13.544;2023-04-08T13:50:16;67.56;40.41;81.67;;
18377;Laerm;9315;52.624;13.544;2023-04-08T13:52:43;68.74;41.46;76.89;;
18377;Laerm;9315;52.624;13.544;2023-04-08T13:55:13;68.26;45.32;76.99;;
18377;Laerm;9315;52.624;13.544;2023-04-08T13:57:43;68.14;41.41;90.19;;
18377;Laerm;9315;52.624;13.544;2023-04-08T14:00:11;66.85;40.26;76.98;;
18377;Laerm;9315;52.624;13.544;2023-04-08T14:02:38;70.14;37.66;88.83;;
18377;Laerm;9315;52.624;13.544;2023-04-08T14:05:06;67.03;44.35;78.18;;
18377;Laerm;9315;52.624;13.544;2023-04-08T14:07:36;68.28;43.08;81.09;;